sensor_id;sensor_type;location;lat;lon;timestamp;pressure;altitude;pressure_sealevel;temperature;humidity
55486;BME280;49383;-25.924;28.194;2023-03-23T00:00:50;85425.72;;;20.31;46.43
55486;BME280;49383;-25.924;28.194;2023-03-23T00:03:15;85425.28;;;20.45;49.61
55486;BME280;49383;-25.924;28.194;2023-03-23T00:05:40;85423.52;;;20.12;49.91
55486;BME280;49383;-25.924;28.194;2023-03-23T00:08:06;85417.69;;;19.97;46.74
55486;BME280;49383;-25.924;28.194;2023-03-23T00:10:31;85418.24;;;20.47;49.07
55486;BME280;49383;-25.924;28.194;2023-03-23T00:12:56;85420.03;;;20.36;48.08
55486;BME280;49383;-25.924;28.194;2023-03-23T00:15:21;85418.64;;;20.27;43.56
55486;BME280;49383;-25.924;28.194;2023-03-23T00:17:46;85416.93;;;20.09;48.34
55486;BME280;49383;-25.924;28.194;2023-03-23T00:20:11;85416.97;;;19.92;49.92
55486;BME280;49383;-25.924;28.194;2023-03-23T00:22:37;85414.82;;;19.76;49.00
55486;BME280;49383;-25.924;28.194;2023-03-23T00:25:02;85416.63;;;20.01;47.15
55486;BME280;49383;-25.924;28.194;2023-03-23T00:27:27;85419.87;;;19.71;49.56
55486;BME280;49383;-25.924;28.194;2023-03-23T00:29:52;85421.79;;;20.21;49.83
55486;BME280;49383;-25.924;28.194;2023-03-23T00:32:18;85423.59;;;20.26;45.05
55486;BME280;49383;-25.924;28.194;2023-03-23T00:34:43;85422.81;;;20.31;48.83
55486;BME280;49383;-25.924;28.194;2023-03-23T00:37:08;85423.25;;;19.95;50.37
55486;BME280;49383;-25.924;28.194;2023-03-23T00:39:34;85422.14;;;20.14;48.91
55486;BME280;49383;-25.924;28.194;2023-03-23T00:41:58;85416.97;;;19.68;47.72
55486;BME280;49383;-25.924;28.194;2023-03-23T00:44:23;85414.95;;;19.90;50.25
55486;BME280;49383;-25.924;28.194;2023-03-23T00:46:49;85412.68;;;19.58;50.47
55486;BME280;49383;-25.924;28.194;2023-03-23T00:49:15;85411.26;;;19.76;46.41
55486;BME280;49383;-25.924;28.194;2023-03-23T00:51:38;85413.44;;;19.79;48.62
55486;BME280;49383;-25.924;28.194;2023-03-23T00:54:03;85413.36;;;19.71;50.41
55486;BME280;49383;-25.924;28.194;2023-03-23T00:56:28;85416.36;;;19.79;50.06
55486;BME280;49383;-25.924;28.194;2023-03-23T00:58:53;85413.96;;;19.92;45.99
55486;BME280;49383;-25.924;28.194;2023-03-23T01:01:18;85411.16;;;19.76;49.66
55486;BME280;49383;-25.924;28.194;2023-03-23T01:03:43;85405.18;;;20.02;50.84
55486;BME280;49383;-25.924;28.194;2023-03-23T01:06:10;85400.60;;;19.87;47.43
55486;BME280;49383;-25.924;28.194;2023-03-23T01:08:34;85394.04;;;20.01;47.80
55486;BME280;49383;-25.924;28.194;2023-03-23T01:11:04;85385.01;;;19.97;50.37
55486;BME280;49383;-25.924;28.194;2023-03-23T01:13:24;85379.96;;;19.79;50.14
55486;BME280;49383;-25.924;28.194;2023-03-23T01:15:49;85376.74;;;20.04;46.49
55486;BME280;49383;-25.924;28.194;2023-03-23T01:18:14;85379.71;;;20.06;48.60
55486;BME280;49383;-25.924;28.194;2023-03-23T01:20:39;85382.89;;;19.94;49.93
55486;BME280;49383;-25.924;28.194;2023-03-23T01:23:04;85385.23;;;19.98;47.55
55486;BME280;49383;-25.924;28.194;2023-03-23T01:25:31;85391.62;;;19.98;47.76
55486;BME280;49383;-25.924;28.194;2023-03-23T01:27:54;85391.98;;;19.84;49.92
55486;BME280;49383;-25.924;28.194;2023-03-23T01:30:19;85389.89;;;20.03;50.14
55486;BME280;49383;-25.924;28.194;2023-03-23T01:32:44;85390.62;;;20.06;46.23
55486;BME280;49383;-25.924;28.194;2023-03-23T01:35:11;85392.40;;;19.86;48.75
55486;BME280;49383;-25.924;28.194;2023-03-23T01:37:34;85389.57;;;20.02;50.47
55486;BME280;49383;-25.924;28.194;2023-03-23T01:39:59;85394.25;;;19.93;49.84
55486;BME280;49383;-25.924;28.194;2023-03-23T01:42:25;85393.04;;;19.96;46.13
55486;BME280;49383;-25.924;28.194;2023-03-23T01:47:15;85394.37;;;19.87;50.61
55486;BME280;49383;-25.924;28.194;2023-03-23T01:49:42;85396.17;;;19.79;49.23
55486;BME280;49383;-25.924;28.194;2023-03-23T01:52:08;85397.86;;;19.97;47.27
55486;BME280;49383;-25.924;28.194;2023-03-23T01:54:30;85392.56;;;19.84;49.78
55486;BME280;49383;-25.924;28.194;2023-03-23T01:56:59;85390.33;;;20.05;50.56
55486;BME280;49383;-25.924;28.194;2023-03-23T01:59:21;85387.26;;;19.55;47.24
55486;BME280;49383;-25.924;28.194;2023-03-23T02:01:45;85388.70;;;19.81;48.64
55486;BME280;49383;-25.924;28.194;2023-03-23T02:04:10;85385.60;;;20.44;48.65
55486;BME280;49383;-25.924;28.194;2023-03-23T02:06:35;85385.24;;;20.17;49.49
55486;BME280;49383;-25.924;28.194;2023-03-23T02:09:00;85380.97;;;20.04;45.53
55486;BME280;49383;-25.924;28.194;2023-03-23T02:11:25;85378.49;;;19.96;48.80
55486;BME280;49383;-25.924;28.194;2023-03-23T02:13:51;85378.53;;;19.76;50.42
55486;BME280;49383;-25.924;28.194;2023-03-23T02:16:23;85383.05;;;19.84;50.03
55486;BME280;49383;-25.924;28.194;2023-03-23T02:18:53;85385.84;;;19.99;46.82
55486;BME280;49383;-25.924;28.194;2023-03-23T02:21:19;85384.01;;;19.85;50.08
55486;BME280;49383;-25.924;28.194;2023-03-23T02:23:43;85385.78;;;20.14;50.64
55486;BME280;49383;-25.924;28.194;2023-03-23T02:26:03;85387.52;;;19.85;47.10
55486;BME280;49383;-25.924;28.194;2023-03-23T02:28:30;85391.04;;;19.86;48.41
55486;BME280;49383;-25.924;28.194;2023-03-23T02:30:56;85390.77;;;20.00;50.22
55486;BME280;49383;-25.924;28.194;2023-03-23T02:35:38;85388.84;;;19.81;45.88
55486;BME280;49383;-25.924;28.194;2023-03-23T02:38:04;85385.58;;;19.77;48.93
55486;BME280;49383;-25.924;28.194;2023-03-23T02:40:30;85382.41;;;20.05;50.70
55486;BME280;49383;-25.924;28.194;2023-03-23T02:42:54;85383.68;;;19.81;50.13
55486;BME280;49383;-25.924;28.194;2023-03-23T02:45:17;85383.90;;;19.95;46.28
55486;BME280;49383;-25.924;28.194;2023-03-23T02:47:42;85387.92;;;19.77;49.38
55486;BME280;49383;-25.924;28.194;2023-03-23T02:50:10;85389.91;;;19.72;50.61
55486;BME280;49383;-25.924;28.194;2023-03-23T02:52:33;85393.21;;;19.98;48.83
55486;BME280;49383;-25.924;28.194;2023-03-23T02:54:58;85393.96;;;19.99;47.20
55486;BME280;49383;-25.924;28.194;2023-03-23T02:57:23;85392.92;;;19.74;50.06
55486;BME280;49383;-25.924;28.194;2023-03-23T02:59:47;85396.11;;;20.17;50.68
55486;BME280;49383;-25.924;28.194;2023-03-23T03:02:14;85402.14;;;19.81;47.19
55486;BME280;49383;-25.924;28.194;2023-03-23T03:04:39;85402.90;;;20.19;48.32
55486;BME280;49383;-25.924;28.194;2023-03-23T03:09:33;85409.87;;;19.83;50.12
55486;BME280;49383;-25.924;28.194;2023-03-23T03:11:56;85414.90;;;20.01;45.30
55486;BME280;49383;-25.924;28.194;2023-03-23T03:14:21;85419.16;;;19.98;48.68
55486;BME280;49383;-25.924;28.194;2023-03-23T03:16:46;85424.87;;;20.29;50.31
55486;BME280;49383;-25.924;28.194;2023-03-23T03:19:11;85427.21;;;19.91;49.92
55486;BME280;49383;-25.924;28.194;2023-03-23T03:21:37;85426.26;;;20.03;45.28
55486;BME280;49383;-25.924;28.194;2023-03-23T03:24:00;85425.04;;;20.32;48.79
55486;BME280;49383;-25.924;28.194;2023-03-23T03:26:23;85424.77;;;20.29;50.31
55486;BME280;49383;-25.924;28.194;2023-03-23T03:28:49;85426.01;;;19.91;48.46
55486;BME280;49383;-25.924;28.194;2023-03-23T03:31:13;85429.84;;;19.89;47.42
55486;BME280;49383;-25.924;28.194;2023-03-23T03:33:38;85433.13;;;19.67;50.05
55486;BME280;49383;-25.924;28.194;2023-03-23T03:36:04;85432.83;;;19.76;50.68
55486;BME280;49383;-25.924;28.194;2023-03-23T03:38:28;85429.80;;;19.60;46.91
55486;BME280;49383;-25.924;28.194;2023-03-23T03:40:54;85430.28;;;19.58;48.91
55486;BME280;49383;-25.924;28.194;2023-03-23T03:43:18;85432.14;;;19.74;50.88
55486;BME280;49383;-25.924;28.194;2023-03-23T03:45:44;85432.03;;;19.93;50.39
55486;BME280;49383;-25.924;28.194;2023-03-23T03:48:08;85434.84;;;19.79;45.91
55486;BME280;49383;-25.924;28.194;2023-03-23T03:50:35;85443.42;;;19.99;49.73
55486;BME280;49383;-25.924;28.194;2023-03-23T03:52:59;85450.61;;;19.90;51.04
55486;BME280;49383;-25.924;28.194;2023-03-23T03:55:24;85448.33;;;19.69;49.57
55486;BME280;49383;-25.924;28.194;2023-03-23T03:57:49;85446.22;;;19.81;47.35
55486;BME280;49383;-25.924;28.194;2023-03-23T04:00:15;85443.85;;;19.83;49.43
55486;BME280;49383;-25.924;28.194;2023-03-23T04:02:39;85448.20;;;19.94;49.82
55486;BME280;49383;-25.924;28.194;2023-03-23T04:05:05;85448.77;;;19.89;46.87
55486;BME280;49383;-25.924;28.194;2023-03-23T04:07:29;85452.94;;;20.00;48.52
55486;BME280;49383;-25.924;28.194;2023-03-23T04:09:54;85461.05;;;19.84;50.59
55486;BME280;49383;-25.924;28.194;2023-03-23T04:12:19;85464.17;;;19.63;50.12
55486;BME280;49383;-25.924;28.194;2023-03-23T04:14:44;85462.96;;;19.74;47.26
55486;BME280;49383;-25.924;28.194;2023-03-23T04:17:09;85465.54;;;19.76;50.21
55486;BME280;49383;-25.924;28.194;2023-03-23T04:19:34;85469.22;;;19.74;50.93
55486;BME280;49383;-25.924;28.194;2023-03-23T04:22:00;85467.18;;;19.68;46.78
55486;BME280;49383;-25.924;28.194;2023-03-23T04:24:25;85466.01;;;19.95;48.89
55486;BME280;49383;-25.924;28.194;2023-03-23T04:26:50;85467.24;;;20.03;50.69
55486;BME280;49383;-25.924;28.194;2023-03-23T04:29:15;85465.31;;;20.06;49.37
55486;BME280;49383;-25.924;28.194;2023-03-23T04:31:40;85465.60;;;19.77;47.29
55486;BME280;49383;-25.924;28.194;2023-03-23T04:34:05;85467.70;;;20.02;49.73
55486;BME280;49383;-25.924;28.194;2023-03-23T04:36:30;85468.72;;;20.14;49.88
55486;BME280;49383;-25.924;28.194;2023-03-23T04:38:55;85470.31;;;19.89;46.08
55486;BME280;49383;-25.924;28.194;2023-03-23T04:41:20;85476.97;;;19.98;48.24
55486;BME280;49383;-25.924;28.194;2023-03-23T04:43:45;85480.79;;;19.48;50.51
55486;BME280;49383;-25.924;28.194;2023-03-23T04:46:10;85484.12;;;20.14;50.22
55486;BME280;49383;-25.924;28.194;2023-03-23T04:48:36;85484.37;;;19.58;46.09
55486;BME280;49383;-25.924;28.194;2023-03-23T04:51:02;85486.74;;;19.77;49.67
55486;BME280;49383;-25.924;28.194;2023-03-23T04:53:26;85490.82;;;19.77;50.72
55486;BME280;49383;-25.924;28.194;2023-03-23T04:55:51;85493.32;;;19.92;46.46
55486;BME280;49383;-25.924;28.194;2023-03-23T04:58:16;85494.96;;;19.46;48.56
55486;BME280;49383;-25.924;28.194;2023-03-23T05:00:41;85499.33;;;19.74;50.42
55486;BME280;49383;-25.924;28.194;2023-03-23T05:03:06;85503.91;;;19.67;50.39
55486;BME280;49383;-25.924;28.194;2023-03-23T05:05:31;85504.87;;;19.89;46.18
55486;BME280;49383;-25.924;28.194;2023-03-23T05:07:57;85507.24;;;19.81;46.73
55486;BME280;49383;-25.924;28.194;2023-03-23T05:10:23;85507.73;;;19.81;50.23
55486;BME280;49383;-25.924;28.194;2023-03-23T05:12:47;85510.04;;;19.68;51.50
55486;BME280;49383;-25.924;28.194;2023-03-23T05:15:15;85510.13;;;19.52;46.93
55486;BME280;49383;-25.924;28.194;2023-03-23T05:17:38;85513.78;;;19.69;47.13
55486;BME280;49383;-25.924;28.194;2023-03-23T05:20:06;85519.54;;;19.67;49.48
55486;BME280;49383;-25.924;28.194;2023-03-23T05:22:29;85522.79;;;19.72;50.29
55486;BME280;49383;-25.924;28.194;2023-03-23T05:24:55;85522.82;;;19.74;45.18
55486;BME280;49383;-25.924;28.194;2023-03-23T05:27:20;85528.37;;;19.52;48.38
55486;BME280;49383;-25.924;28.194;2023-03-23T05:29:47;85530.53;;;19.62;50.04
55486;BME280;49383;-25.924;28.194;2023-03-23T05:32:11;85529.78;;;19.84;48.23
55486;BME280;49383;-25.924;28.194;2023-03-23T05:34:37;85535.56;;;19.53;48.69
55486;BME280;49383;-25.924;28.194;2023-03-23T05:37:03;85536.95;;;19.72;50.43
55486;BME280;49383;-25.924;28.194;2023-03-23T05:39:28;85541.69;;;19.71;49.61
55486;BME280;49383;-25.924;28.194;2023-03-23T05:41:53;85541.22;;;20.04;45.22
55486;BME280;49383;-25.924;28.194;2023-03-23T05:44:18;85541.27;;;19.84;48.84
55486;BME280;49383;-25.924;28.194;2023-03-23T05:46:44;85540.74;;;19.46;50.52
55486;BME280;49383;-25.924;28.194;2023-03-23T05:49:09;85543.08;;;20.04;48.34
55486;BME280;49383;-25.924;28.194;2023-03-23T05:51:35;85545.10;;;19.64;47.01
55486;BME280;49383;-25.924;28.194;2023-03-23T05:54:01;85546.54;;;19.54;49.60
55486;BME280;49383;-25.924;28.194;2023-03-23T05:56:26;85547.05;;;19.78;47.81
55486;BME280;49383;-25.924;28.194;2023-03-23T05:58:51;85544.78;;;19.54;45.42
55486;BME280;49383;-25.924;28.194;2023-03-23T06:01:16;85547.93;;;19.62;45.60
55486;BME280;49383;-25.924;28.194;2023-03-23T06:03:42;85549.81;;;19.72;45.69
55486;BME280;49383;-25.924;28.194;2023-03-23T06:06:10;85551.36;;;19.37;45.71
55486;BME280;49383;-25.924;28.194;2023-03-23T06:08:33;85557.86;;;19.37;45.50
55486;BME280;49383;-25.924;28.194;2023-03-23T06:10:58;85560.72;;;19.69;45.26
55486;BME280;49383;-25.924;28.194;2023-03-23T06:13:23;85565.11;;;19.79;45.29
55486;BME280;49383;-25.924;28.194;2023-03-23T06:15:49;85562.25;;;19.89;45.09
55486;BME280;49383;-25.924;28.194;2023-03-23T06:18:14;85560.85;;;19.73;44.81
55486;BME280;49383;-25.924;28.194;2023-03-23T06:20:39;85556.11;;;19.55;44.76
55486;BME280;49383;-25.924;28.194;2023-03-23T06:23:04;85562.33;;;19.60;44.76
55486;BME280;49383;-25.924;28.194;2023-03-23T06:25:30;85570.54;;;19.69;44.74
55486;BME280;49383;-25.924;28.194;2023-03-23T06:27:56;85572.22;;;19.83;44.65
55486;BME280;49383;-25.924;28.194;2023-03-23T06:30:21;85574.09;;;19.95;44.44
55486;BME280;49383;-25.924;28.194;2023-03-23T06:32:46;85573.34;;;20.11;44.60
55486;BME280;49383;-25.924;28.194;2023-03-23T06:35:11;85571.01;;;19.92;44.64
55486;BME280;49383;-25.924;28.194;2023-03-23T06:37:36;85573.29;;;19.95;44.73
55486;BME280;49383;-25.924;28.194;2023-03-23T06:40:01;85570.58;;;19.87;44.39
55486;BME280;49383;-25.924;28.194;2023-03-23T06:42:26;85570.00;;;20.18;44.22
55486;BME280;49383;-25.924;28.194;2023-03-23T06:44:52;85571.61;;;20.03;44.07
55486;BME280;49383;-25.924;28.194;2023-03-23T06:47:17;85569.86;;;20.28;43.93
55486;BME280;49383;-25.924;28.194;2023-03-23T06:49:43;85572.52;;;20.18;43.91
55486;BME280;49383;-25.924;28.194;2023-03-23T06:52:08;85572.44;;;20.17;44.12
55486;BME280;49383;-25.924;28.194;2023-03-23T06:54:33;85568.88;;;20.28;43.95
55486;BME280;49383;-25.924;28.194;2023-03-23T06:56:58;85564.39;;;20.25;43.98
55486;BME280;49383;-25.924;28.194;2023-03-23T06:59:23;85563.81;;;20.29;44.01
55486;BME280;49383;-25.924;28.194;2023-03-23T07:01:48;85561.06;;;20.18;43.81
55486;BME280;49383;-25.924;28.194;2023-03-23T07:04:13;85558.91;;;20.17;43.77
55486;BME280;49383;-25.924;28.194;2023-03-23T07:06:38;85557.20;;;20.33;43.82
55486;BME280;49383;-25.924;28.194;2023-03-23T07:09:04;85558.06;;;20.33;43.79
55486;BME280;49383;-25.924;28.194;2023-03-23T07:11:29;85560.15;;;20.28;43.85
55486;BME280;49383;-25.924;28.194;2023-03-23T07:13:54;85561.78;;;19.95;43.94
55486;BME280;49383;-25.924;28.194;2023-03-23T07:16:19;85563.39;;;20.17;43.89
55486;BME280;49383;-25.924;28.194;2023-03-23T07:18:44;85565.37;;;20.18;43.56
55486;BME280;49383;-25.924;28.194;2023-03-23T07:21:09;85562.07;;;20.40;43.49
55486;BME280;49383;-25.924;28.194;2023-03-23T07:23:34;85563.09;;;20.18;43.39
55486;BME280;49383;-25.924;28.194;2023-03-23T07:25:59;85567.05;;;20.40;43.46
55486;BME280;49383;-25.924;28.194;2023-03-23T07:28:24;85567.69;;;20.68;43.17
55486;BME280;49383;-25.924;28.194;2023-03-23T07:30:49;85561.39;;;20.31;42.76
55486;BME280;49383;-25.924;28.194;2023-03-23T07:33:14;85561.97;;;20.37;42.73
55486;BME280;49383;-25.924;28.194;2023-03-23T07:35:40;85563.17;;;20.04;42.82
55486;BME280;49383;-25.924;28.194;2023-03-23T07:38:05;85569.61;;;20.49;42.84
55486;BME280;49383;-25.924;28.194;2023-03-23T07:40:30;85560.94;;;20.48;42.81
55486;BME280;49383;-25.924;28.194;2023-03-23T07:42:56;85562.99;;;19.94;42.83
55486;BME280;49383;-25.924;28.194;2023-03-23T07:45:20;85565.23;;;20.55;42.75
55486;BME280;49383;-25.924;28.194;2023-03-23T07:47:45;85569.95;;;20.66;42.72
55486;BME280;49383;-25.924;28.194;2023-03-23T07:50:10;85565.86;;;20.59;42.08
55486;BME280;49383;-25.924;28.194;2023-03-23T07:52:36;85563.77;;;20.46;42.12
55486;BME280;49383;-25.924;28.194;2023-03-23T07:55:01;85572.28;;;20.46;41.25
55486;BME280;49383;-25.924;28.194;2023-03-23T07:57:25;85569.77;;;20.64;42.53
55486;BME280;49383;-25.924;28.194;2023-03-23T07:59:50;85568.47;;;20.75;44.43
55486;BME280;49383;-25.924;28.194;2023-03-23T08:02:15;85573.28;;;20.94;44.24
55486;BME280;49383;-25.924;28.194;2023-03-23T08:04:41;85571.31;;;20.91;43.60
55486;BME280;49383;-25.924;28.194;2023-03-23T08:07:06;85581.84;;;20.86;43.54
55486;BME280;49383;-25.924;28.194;2023-03-23T08:09:31;85580.52;;;20.86;44.06
55486;BME280;49383;-25.924;28.194;2023-03-23T08:11:56;85583.43;;;20.74;44.10
55486;BME280;49383;-25.924;28.194;2023-03-23T08:14:21;85581.48;;;20.89;44.22
55486;BME280;49383;-25.924;28.194;2023-03-23T08:16:46;85571.29;;;20.62;44.07
55486;BME280;49383;-25.924;28.194;2023-03-23T08:19:11;85571.19;;;20.90;44.01
55486;BME280;49383;-25.924;28.194;2023-03-23T08:21:36;85575.69;;;20.84;44.01
55486;BME280;49383;-25.924;28.194;2023-03-23T08:24:02;85576.90;;;20.74;43.50
55486;BME280;49383;-25.924;28.194;2023-03-23T08:26:27;85570.62;;;21.03;43.23
55486;BME280;49383;-25.924;28.194;2023-03-23T08:28:52;85572.29;;;21.03;43.24
55486;BME280;49383;-25.924;28.194;2023-03-23T08:31:17;85570.15;;;21.02;43.07
55486;BME280;49383;-25.924;28.194;2023-03-23T08:33:42;85573.07;;;20.81;42.86
55486;BME280;49383;-25.924;28.194;2023-03-23T08:36:07;85568.19;;;20.71;42.99
55486;BME280;49383;-25.924;28.194;2023-03-23T08:38:33;85557.86;;;20.78;42.93
55486;BME280;49383;-25.924;28.194;2023-03-23T08:40:58;85555.08;;;20.89;42.72
55486;BME280;49383;-25.924;28.194;2023-03-23T08:43:23;85554.24;;;21.14;42.36
55486;BME280;49383;-25.924;28.194;2023-03-23T08:45:48;85547.54;;;20.85;42.46
55486;BME280;49383;-25.924;28.194;2023-03-23T08:48:13;85554.70;;;21.12;42.33
55486;BME280;49383;-25.924;28.194;2023-03-23T08:50:38;85549.99;;;21.20;42.24
55486;BME280;49383;-25.924;28.194;2023-03-23T08:53:03;85550.28;;;21.04;41.58
55486;BME280;49383;-25.924;28.194;2023-03-23T08:55:29;85544.73;;;21.02;41.54
55486;BME280;49383;-25.924;28.194;2023-03-23T08:57:53;85541.76;;;21.29;41.60
55486;BME280;49383;-25.924;28.194;2023-03-23T09:00:21;85542.99;;;21.44;40.63
55486;BME280;49383;-25.924;28.194;2023-03-23T09:02:45;85548.07;;;21.40;40.13
55486;BME280;49383;-25.924;28.194;2023-03-23T09:05:09;85545.16;;;21.39;40.74
55486;BME280;49383;-25.924;28.194;2023-03-23T09:07:34;85542.42;;;21.45;41.05
55486;BME280;49383;-25.924;28.194;2023-03-23T09:09:59;85542.45;;;21.10;41.30
55486;BME280;49383;-25.924;28.194;2023-03-23T09:12:24;85533.17;;;21.01;41.56
55486;BME280;49383;-25.924;28.194;2023-03-23T09:14:49;85527.92;;;21.03;41.51
55486;BME280;49383;-25.924;28.194;2023-03-23T09:17:14;85526.74;;;20.87;41.48
55486;BME280;49383;-25.924;28.194;2023-03-23T09:19:39;85523.97;;;21.36;41.39
55486;BME280;49383;-25.924;28.194;2023-03-23T09:22:04;85519.97;;;21.34;41.35
55486;BME280;49383;-25.924;28.194;2023-03-23T09:24:29;85514.49;;;21.38;41.11
55486;BME280;49383;-25.924;28.194;2023-03-23T09:26:54;85516.20;;;21.28;41.16
55486;BME280;49383;-25.924;28.194;2023-03-23T09:29:19;85504.36;;;21.02;41.18
55486;BME280;49383;-25.924;28.194;2023-03-23T09:31:44;85505.64;;;21.24;41.15
55486;BME280;49383;-25.924;28.194;2023-03-23T09:34:10;85497.90;;;21.19;41.16
55486;BME280;49383;-25.924;28.194;2023-03-23T09:36:34;85498.19;;;21.16;41.23
55486;BME280;49383;-25.924;28.194;2023-03-23T09:39:00;85492.99;;;20.88;41.27
55486;BME280;49383;-25.924;28.194;2023-03-23T09:44:01;85483.14;;;21.01;41.55
55486;BME280;49383;-25.924;28.194;2023-03-23T09:46:29;85480.17;;;20.98;41.64
55486;BME280;49383;-25.924;28.194;2023-03-23T09:48:49;85480.66;;;20.68;41.78
55486;BME280;49383;-25.924;28.194;2023-03-23T09:51:14;85478.28;;;20.96;41.73
55486;BME280;49383;-25.924;28.194;2023-03-23T09:53:36;85473.99;;;20.94;41.81
55486;BME280;49383;-25.924;28.194;2023-03-23T09:55:55;85484.09;;;20.95;41.83
55486;BME280;49383;-25.924;28.194;2023-03-23T09:58:24;85482.33;;;21.00;42.13
55486;BME280;49383;-25.924;28.194;2023-03-23T10:00:48;85476.26;;;20.60;42.35
55486;BME280;49383;-25.924;28.194;2023-03-23T10:03:15;85470.68;;;21.28;42.01
55486;BME280;49383;-25.924;28.194;2023-03-23T10:05:39;85468.21;;;20.87;41.85
55486;BME280;49383;-25.924;28.194;2023-03-23T10:08:03;85468.94;;;20.97;41.92
55486;BME280;49383;-25.924;28.194;2023-03-23T10:10:33;85462.95;;;20.96;41.81
55486;BME280;49383;-25.924;28.194;2023-03-23T10:12:56;85462.41;;;20.79;41.64
55486;BME280;49383;-25.924;28.194;2023-03-23T10:15:19;85457.10;;;19.82;41.58
55486;BME280;49383;-25.924;28.194;2023-03-23T10:17:47;85454.10;;;21.33;41.17
55486;BME280;49383;-25.924;28.194;2023-03-23T10:22:36;85447.69;;;20.99;41.24
55486;BME280;49383;-25.924;28.194;2023-03-23T10:25:03;85442.07;;;21.01;41.20
55486;BME280;49383;-25.924;28.194;2023-03-23T10:27:28;85427.76;;;20.87;41.40
55486;BME280;49383;-25.924;28.194;2023-03-23T10:29:52;85428.90;;;21.03;41.64
55486;BME280;49383;-25.924;28.194;2023-03-23T10:32:15;85422.62;;;20.60;41.91
55486;BME280;49383;-25.924;28.194;2023-03-23T10:34:42;85420.18;;;20.91;41.85
55486;BME280;49383;-25.924;28.194;2023-03-23T10:37:05;85414.67;;;20.80;41.98
55486;BME280;49383;-25.924;28.194;2023-03-23T10:39:30;85409.61;;;20.83;42.03
55486;BME280;49383;-25.924;28.194;2023-03-23T10:41:52;85410.08;;;20.61;42.03
55486;BME280;49383;-25.924;28.194;2023-03-23T10:44:18;85419.61;;;20.90;41.97
55486;BME280;49383;-25.924;28.194;2023-03-23T10:46:47;85426.05;;;21.07;41.68
55486;BME280;49383;-25.924;28.194;2023-03-23T10:49:11;85426.57;;;20.90;41.40
55486;BME280;49383;-25.924;28.194;2023-03-23T10:51:36;85409.79;;;20.92;41.24
55486;BME280;49383;-25.924;28.194;2023-03-23T10:54:00;85412.06;;;20.85;41.27
55486;BME280;49383;-25.924;28.194;2023-03-23T10:56:24;85409.33;;;20.83;41.26
55486;BME280;49383;-25.924;28.194;2023-03-23T10:58:48;85410.73;;;20.78;41.29
55486;BME280;49383;-25.924;28.194;2023-03-23T11:01:13;85412.19;;;20.77;41.21
55486;BME280;49383;-25.924;28.194;2023-03-23T11:03:42;85405.23;;;20.77;41.20
55486;BME280;49383;-25.924;28.194;2023-03-23T11:06:05;85409.46;;;20.74;41.27
55486;BME280;49383;-25.924;28.194;2023-03-23T11:08:31;85405.29;;;20.74;41.23
55486;BME280;49383;-25.924;28.194;2023-03-23T11:10:55;85394.36;;;20.40;41.51
55486;BME280;49383;-25.924;28.194;2023-03-23T11:13:20;85390.12;;;20.73;41.43
55486;BME280;49383;-25.924;28.194;2023-03-23T11:15:45;85385.70;;;20.83;41.71
55486;BME280;49383;-25.924;28.194;2023-03-23T11:18:12;85382.57;;;21.01;41.73
55486;BME280;49383;-25.924;28.194;2023-03-23T11:20:37;85380.98;;;20.91;41.85
55486;BME280;49383;-25.924;28.194;2023-03-23T11:22:59;85373.06;;;20.77;41.76
55486;BME280;49383;-25.924;28.194;2023-03-23T11:25:24;85373.61;;;20.77;41.74
55486;BME280;49383;-25.924;28.194;2023-03-23T11:27:49;85374.87;;;20.88;41.88
55486;BME280;49383;-25.924;28.194;2023-03-23T11:30:20;85374.78;;;20.90;41.91
55486;BME280;49383;-25.924;28.194;2023-03-23T11:32:44;85373.15;;;20.46;41.86
55486;BME280;49383;-25.924;28.194;2023-03-23T11:35:11;85369.50;;;20.56;41.79
55486;BME280;49383;-25.924;28.194;2023-03-23T11:37:33;85368.89;;;20.85;41.66
55486;BME280;49383;-25.924;28.194;2023-03-23T11:39:56;85367.56;;;20.86;41.62
55486;BME280;49383;-25.924;28.194;2023-03-23T11:42:21;85368.43;;;20.56;41.61
55486;BME280;49383;-25.924;28.194;2023-03-23T11:44:44;85363.19;;;20.78;41.72
55486;BME280;49383;-25.924;28.194;2023-03-23T11:47:16;85370.73;;;20.83;41.53
55486;BME280;49383;-25.924;28.194;2023-03-23T11:49:41;85364.69;;;20.88;41.35
55486;BME280;49383;-25.924;28.194;2023-03-23T11:52:05;85356.01;;;20.63;41.34
55486;BME280;49383;-25.924;28.194;2023-03-23T11:54:31;85345.47;;;20.60;41.34
55486;BME280;49383;-25.924;28.194;2023-03-23T11:56:50;85345.55;;;20.50;41.45
55486;BME280;49383;-25.924;28.194;2023-03-23T11:59:17;85335.32;;;20.42;41.60
55486;BME280;49383;-25.924;28.194;2023-03-23T12:01:48;85330.40;;;20.75;41.67
55486;BME280;49383;-25.924;28.194;2023-03-23T12:04:17;85327.00;;;20.88;42.00
55486;BME280;49383;-25.924;28.194;2023-03-23T12:06:38;85319.07;;;20.70;42.42
55486;BME280;49383;-25.924;28.194;2023-03-23T12:09:07;85315.95;;;20.64;42.31
55486;BME280;49383;-25.924;28.194;2023-03-23T12:11:26;85311.97;;;20.58;42.67
55486;BME280;49383;-25.924;28.194;2023-03-23T12:13:56;85311.55;;;20.48;42.93
55486;BME280;49383;-25.924;28.194;2023-03-23T12:16:17;85302.57;;;20.67;43.10
55486;BME280;49383;-25.924;28.194;2023-03-23T12:18:46;85304.97;;;20.50;43.13
55486;BME280;49383;-25.924;28.194;2023-03-23T12:21:12;85309.42;;;20.42;42.79
55486;BME280;49383;-25.924;28.194;2023-03-23T12:23:34;85309.51;;;20.34;42.94
55486;BME280;49383;-25.924;28.194;2023-03-23T12:28:25;85309.81;;;20.70;43.09
55486;BME280;49383;-25.924;28.194;2023-03-23T12:30:48;85313.51;;;20.75;42.94
55486;BME280;49383;-25.924;28.194;2023-03-23T12:33:18;85312.88;;;20.87;42.66
55486;BME280;49383;-25.924;28.194;2023-03-23T12:35:42;85313.53;;;20.78;42.80
55486;BME280;49383;-25.924;28.194;2023-03-23T12:38:11;85310.61;;;20.71;42.59
55486;BME280;49383;-25.924;28.194;2023-03-23T12:40:34;85308.63;;;20.65;42.72
55486;BME280;49383;-25.924;28.194;2023-03-23T12:42:54;85307.47;;;20.84;42.83